Time;durP1;ratioP1;P1;durP2;ratioP2;P2;SDS_P1;SDS_P2;PMS_P1;PMS_P2;Temp;Humidity;BMP_temperature;BMP_pressure;BME280_temperature;BME280_humidity;BME280_pressure;Samples;Min_cycle;Max_cycle;Signal;HPM_P1;HPM_P2
2022/06/08 00:02:10;;;;;;;2.37;2.17;;;15.80;99.90;;;;;;5103267;28;20210;-58
2022/06/08 00:04:39;;;;;;;2.23;2.00;;;15.70;99.90;;;;;;5086911;28;20204;-59
2022/06/08 00:07:07;;;;;;;2.40;2.20;;;15.80;99.90;;;;;;5073180;28;20619;-57
2022/06/08 00:09:36;;;;;;;2.47;2.13;;;15.80;99.90;;;;;;5106968;28;20306;-58
2022/06/08 00:12:06;;;;;;;6.73;2.37;;;15.70;99.90;;;;;;5072977;28;20290;-58
2022/06/08 00:14:35;;;;;;;3.37;2.87;;;15.70;99.90;;;;;;5076436;28;20204;-59
2022/06/08 00:17:04;;;;;;;2.60;2.47;;;15.60;99.90;;;;;;5111730;28;20531;-58
2022/06/08 00:19:32;;;;;;;2.60;2.50;;;15.60;99.90;;;;;;5107080;28;20669;-57
2022/06/08 00:22:01;;;;;;;2.53;2.07;;;15.60;99.90;;;;;;5093020;28;20564;-57
2022/06/08 00:24:30;;;;;;;2.20;2.10;;;15.50;99.90;;;;;;5091252;28;20200;-57
2022/06/08 00:27:00;;;;;;;2.57;2.37;;;15.50;99.90;;;;;;5090670;28;20299;-57
2022/06/08 00:29:30;;;;;;;2.53;2.43;;;15.50;99.90;;;;;;5094227;28;20196;-57
2022/06/08 00:32:01;;;;;;;3.83;2.67;;;15.50;99.90;;;;;;5084902;28;20521;-57
2022/06/08 00:34:29;;;;;;;3.47;2.30;;;15.50;99.90;;;;;;5083815;28;20203;-58
2022/06/08 00:36:58;;;;;;;2.80;2.60;;;15.40;99.90;;;;;;5104180;28;20270;-57
2022/06/08 00:39:26;;;;;;;2.80;2.50;;;15.40;99.90;;;;;;5117430;28;20235;-58
2022/06/08 00:41:58;;;;;;;2.50;2.40;;;15.40;99.90;;;;;;5086283;28;20196;-57
2022/06/08 00:44:32;;;;;;;2.63;2.50;;;15.30;99.90;;;;;;5096801;28;20246;-57
2022/06/08 00:47:03;;;;;;;4.03;2.23;;;15.20;99.90;;;;;;5058584;28;20211;-57
2022/06/08 00:49:34;;;;;;;4.70;2.63;;;15.20;99.90;;;;;;5079460;28;20197;-57
2022/06/08 00:52:03;;;;;;;3.73;2.90;;;15.20;99.90;;;;;;5096710;28;20284;-58
2022/06/08 00:54:35;;;;;;;2.70;2.50;;;15.20;99.90;;;;;;5096930;28;20253;-57
2022/06/08 00:57:11;;;;;;;2.70;2.50;;;15.10;99.90;;;;;;5089607;28;20193;-57
2022/06/08 00:59:46;;;;;;;4.03;2.80;;;15.10;99.90;;;;;;5102055;27;20188;-57
2022/06/08 01:02:47;;;;;;;4.10;2.73;;;15.10;99.90;;;;;;5095924;28;20204;-57
2022/06/08 01:14:02;;;;;;;2.80;2.50;;;15.10;99.90;;;;;;5091950;28;20178;-58
2022/06/08 01:16:33;;;;;;;3.97;2.70;;;15.10;99.90;;;;;;5101379;28;20675;-57
2022/06/08 01:19:02;;;;;;;4.03;3.37;;;15.10;99.90;;;;;;5096122;28;20192;-58
2022/06/08 01:22:06;;;;;;;4.80;3.10;;;15.10;99.90;;;;;;5083851;28;20201;-58
2022/06/08 01:24:36;;;;;;;4.57;3.20;;;15.10;99.90;;;;;;5034337;28;20657;-57
2022/06/08 01:27:13;;;;;;;3.30;3.10;;;15.10;99.90;;;;;;5029616;28;20242;-58
2022/06/08 01:29:49;;;;;;;3.83;3.17;;;15.00;99.90;;;;;;5051114;28;20204;-57
2022/06/08 01:32:24;;;;;;;3.37;3.07;;;15.00;99.90;;;;;;5096471;28;20200;-57
2022/06/08 01:35:17;;;;;;;5.87;3.43;;;15.00;99.90;;;;;;5078182;28;20671;-57
2022/06/08 01:38:02;;;;;;;6.10;3.50;;;15.00;99.90;;;;;;5070260;28;20187;-58
2022/06/08 01:41:02;;;;;;;6.37;3.23;;;14.90;99.90;;;;;;5077941;28;20555;-57
2022/06/08 01:43:43;;;;;;;7.57;3.67;;;15.00;99.90;;;;;;5081343;28;20197;-58
2022/06/08 01:46:23;;;;;;;3.33;3.13;;;14.90;99.90;;;;;;5077473;28;20206;-57
2022/06/08 01:49:15;;;;;;;7.70;3.80;;;14.90;99.90;;;;;;5081870;28;20252;-57
2022/06/08 01:51:52;;;;;;;5.20;3.63;;;14.90;99.90;;;;;;5101628;28;20192;-58
2022/06/08 01:54:34;;;;;;;4.23;3.70;;;14.80;99.90;;;;;;5111466;28;20230;-57
2022/06/08 01:57:12;;;;;;;5.40;3.60;;;14.90;99.90;;;;;;5102113;28;20217;-58
2022/06/08 01:59:47;;;;;;;5.60;3.30;;;14.80;99.90;;;;;;5080683;28;20652;-57
2022/06/08 02:07:10;;;;;;;4.90;3.57;;;14.80;99.90;;;;;;5095788;28;20210;-57
2022/06/08 02:09:46;;;;;;;4.00;3.80;;;14.70;99.90;;;;;;5095909;28;20191;-58
2022/06/08 02:12:15;;;;;;;3.77;3.27;;;14.70;99.90;;;;;;5095408;28;20210;-57
2022/06/08 02:14:48;;;;;;;4.17;3.30;;;14.70;99.90;;;;;;5095361;28;20600;-58
2022/06/08 02:17:23;;;;;;;4.10;3.70;;;14.60;99.90;;;;;;5095232;28;20234;-57
2022/06/08 02:19:57;;;;;;;3.93;3.60;;;14.70;99.90;;;;;;5095427;28;20187;-57
2022/06/08 02:22:36;;;;;;;3.90;3.57;;;14.60;99.90;;;;;;5091433;28;20226;-57
2022/06/08 02:25:13;;;;;;;3.97;3.57;;;14.60;99.90;;;;;;5095286;28;20651;-57
2022/06/08 02:27:47;;;;;;;4.00;3.60;;;14.60;99.90;;;;;;5085325;28;20212;-57
2022/06/08 02:30:18;;;;;;;4.73;3.53;;;14.60;99.90;;;;;;5077398;28;20204;-58
2022/06/08 02:35:43;;;;;;;4.73;3.90;;;14.60;99.90;;;;;;5077130;28;20186;-57
2022/06/08 02:38:13;;;;;;;8.63;4.40;;;14.60;99.90;;;;;;5076868;28;20556;-57
2022/06/08 02:40:48;;;;;;;6.57;4.00;;;14.50;99.90;;;;;;5095075;28;20213;-57
2022/06/08 02:43:21;;;;;;;4.60;3.70;;;14.50;99.90;;;;;;5103270;28;20222;-59
2022/06/08 02:45:57;;;;;;;3.83;3.63;;;14.50;99.90;;;;;;5092672;28;20192;-57
2022/06/08 02:48:26;;;;;;;3.90;3.70;;;14.50;99.90;;;;;;5076788;28;20238;-57
2022/06/08 02:50:58;;;;;;;4.60;3.63;;;14.60;99.90;;;;;;5076256;28;20184;-57
2022/06/08 02:53:59;;;;;;;5.90;3.80;;;14.60;99.90;;;;;;5076461;28;20631;-57
2022/06/08 02:57:04;;;;;;;4.17;3.87;;;14.60;99.90;;;;;;5065974;28;20207;-58
2022/06/08 02:59:41;;;;;;;5.80;4.23;;;14.60;99.90;;;;;;5067802;28;20244;-57
2022/06/08 03:10:21;;;;;;;4.30;3.90;;;14.60;99.90;;;;;;5074526;28;20168;-57
2022/06/08 03:12:57;;;;;;;7.73;4.57;;;14.60;99.90;;;;;;5112490;28;20269;-58
2022/06/08 03:15:26;;;;;;;4.53;4.23;;;14.60;99.90;;;;;;5080663;28;20238;-58
2022/06/08 03:17:55;;;;;;;8.60;4.73;;;14.60;99.90;;;;;;5092357;28;20294;-57
2022/06/08 03:20:31;;;;;;;4.60;4.10;;;14.70;99.90;;;;;;5062351;27;20610;-59
2022/06/08 03:23:00;;;;;;;6.00;4.40;;;14.70;99.90;;;;;;5011206;28;20198;-59
2022/06/08 03:25:28;;;;;;;5.63;4.70;;;14.70;99.90;;;;;;5033988;28;20206;-58
2022/06/08 03:27:57;;;;;;;6.27;4.70;;;14.70;99.90;;;;;;5026536;28;20202;-58
2022/06/08 03:30:26;;;;;;;5.70;4.43;;;14.70;99.90;;;;;;5061985;28;20195;-58
2022/06/08 03:32:54;;;;;;;5.40;4.57;;;14.70;99.90;;;;;;5035253;28;20201;-59
2022/06/08 03:35:23;;;;;;;5.37;4.80;;;14.80;99.90;;;;;;5046611;28;20271;-58
2022/06/08 03:37:52;;;;;;;7.53;5.33;;;14.80;99.90;;;;;;5038921;28;20186;-59
2022/06/08 03:40:21;;;;;;;6.77;5.00;;;14.70;99.90;;;;;;5026486;28;20310;-59
2022/06/08 03:42:49;;;;;;;4.93;4.50;;;14.80;99.90;;;;;;5026188;28;20658;-59
2022/06/08 03:45:18;;;;;;;5.97;4.47;;;14.80;99.90;;;;;;5028404;28;20711;-59
2022/06/08 03:47:48;;;;;;;7.60;4.90;;;14.80;99.90;;;;;;5026256;28;20723;-58
2022/06/08 03:50:20;;;;;;;8.23;4.67;;;14.80;99.90;;;;;;5016767;28;20200;-59
2022/06/08 03:52:57;;;;;;;7.40;4.60;;;14.90;99.90;;;;;;4994910;28;20248;-58
2022/06/08 03:55:29;;;;;;;6.07;4.70;;;14.90;99.90;;;;;;5012387;28;20673;-58
2022/06/08 03:57:58;;;;;;;7.53;4.60;;;14.90;99.90;;;;;;5017672;28;20197;-58
2022/06/08 04:00:27;;;;;;;6.33;4.70;;;14.80;99.90;;;;;;5003689;28;20213;-59
2022/06/08 04:03:14;;;;;;;7.83;4.80;;;14.90;99.90;;;;;;5026565;28;20201;-59
2022/06/08 04:06:20;;;;;;;9.57;4.30;;;14.80;99.90;;;;;;5050899;28;20675;-58
2022/06/08 04:08:51;;;;;;;7.73;4.90;;;14.80;99.90;;;;;;5030435;28;20191;-59
2022/06/08 04:11:20;;;;;;;5.77;4.47;;;14.80;99.90;;;;;;5041285;28;20228;-59
2022/06/08 04:13:48;;;;;;;4.37;3.93;;;14.80;99.90;;;;;;5099575;28;20183;-58
2022/06/08 04:16:19;;;;;;;6.00;4.37;;;14.80;99.90;;;;;;5081210;28;20196;-59
2022/06/08 04:18:48;;;;;;;4.27;3.80;;;14.80;99.90;;;;;;5011349;28;20240;-59
2022/06/08 04:21:17;;;;;;;9.00;4.47;;;14.90;99.90;;;;;;5083248;28;20243;-58
2022/06/08 04:23:48;;;;;;;8.23;4.43;;;14.90;99.90;;;;;;5026284;28;20200;-58
2022/06/08 04:26:19;;;;;;;8.10;4.40;;;15.00;99.90;;;;;;5025797;28;20193;-58
2022/06/08 04:28:47;;;;;;;4.87;3.90;;;15.10;99.90;;;;;;5022523;28;20194;-58
2022/06/08 04:31:16;;;;;;;4.77;3.70;;;15.10;99.90;;;;;;5009086;28;20197;-58
2022/06/08 04:33:46;;;;;;;6.70;3.70;;;15.10;99.90;;;;;;5012189;28;20200;-59
2022/06/08 04:36:15;;;;;;;17.63;3.97;;;15.30;99.90;;;;;;5012067;28;20236;-58
2022/06/08 04:38:43;;;;;;;6.87;3.40;;;15.30;99.90;;;;;;5003804;28;20556;-58
2022/06/08 04:41:14;;;;;;;5.07;3.43;;;15.40;99.90;;;;;;5012717;28;20229;-58
2022/06/08 04:43:44;;;;;;;5.83;3.20;;;15.40;99.90;;;;;;5013288;28;20628;-58
2022/06/08 04:46:15;;;;;;;7.80;3.37;;;15.40;99.90;;;;;;5011573;28;20207;-58
2022/06/08 04:48:44;;;;;;;7.30;3.33;;;15.40;99.90;;;;;;4993219;28;20199;-58
2022/06/08 04:51:14;;;;;;;3.87;3.10;;;15.50;99.90;;;;;;5010293;28;20659;-59
2022/06/08 04:53:47;;;;;;;4.53;3.10;;;15.50;99.90;;;;;;5011716;28;20629;-59
2022/06/08 04:56:17;;;;;;;5.77;2.90;;;15.50;99.90;;;;;;5099787;28;20202;-60
2022/06/08 04:58:49;;;;;;;6.90;3.20;;;15.50;99.90;;;;;;5014555;28;20518;-59
2022/06/08 05:01:17;;;;;;;8.13;3.20;;;15.60;99.90;;;;;;5024654;28;20221;-59
2022/06/08 05:03:46;;;;;;;6.07;2.70;;;15.70;99.90;;;;;;5005502;28;20291;-59
2022/06/08 05:06:18;;;;;;;3.73;3.00;;;15.70;99.90;;;;;;5011607;28;20226;-59
2022/06/08 05:08:46;;;;;;;4.37;2.87;;;15.70;99.90;;;;;;5011865;28;20278;-59
2022/06/08 05:11:20;;;;;;;7.90;2.80;;;15.70;99.90;;;;;;5009015;28;20194;-59
2022/06/08 05:13:50;;;;;;;7.33;2.80;;;15.80;99.90;;;;;;5011794;28;20214;-59
2022/06/08 05:16:19;;;;;;;4.87;3.10;;;15.80;99.90;;;;;;5010054;28;20210;-59
2022/06/08 05:18:47;;;;;;;7.50;2.67;;;15.70;99.90;;;;;;5002378;28;20331;-59
2022/06/08 05:21:15;;;;;;;7.87;2.90;;;15.80;99.90;;;;;;5007241;28;20226;-58
2022/06/08 05:23:43;;;;;;;6.33;2.90;;;15.80;99.90;;;;;;5010567;28;20194;-59
2022/06/08 05:26:13;;;;;;;6.43;2.77;;;15.90;99.90;;;;;;5007682;28;20189;-58
2022/06/08 05:28:42;;;;;;;6.43;2.83;;;16.00;99.90;;;;;;5012329;28;20650;-59
2022/06/08 05:31:12;;;;;;;5.57;2.70;;;16.00;99.90;;;;;;5009988;28;20187;-59
2022/06/08 05:33:41;;;;;;;8.27;2.80;;;16.00;99.90;;;;;;5007431;28;20236;-59
2022/06/08 05:36:10;;;;;;;9.60;2.67;;;15.90;99.90;;;;;;5076363;28;20193;-58
2022/06/08 05:38:38;;;;;;;8.57;2.73;;;16.00;99.90;;;;;;5022584;28;20200;-58
2022/06/08 05:41:06;;;;;;;7.03;2.67;;;16.00;99.90;;;;;;5010818;28;20218;-59
2022/06/08 05:43:35;;;;;;;7.77;2.90;;;16.10;99.90;;;;;;5009321;28;20207;-59
2022/06/08 05:46:03;;;;;;;4.97;2.70;;;16.10;99.90;;;;;;5021134;28;20197;-59
2022/06/08 05:48:33;;;;;;;6.80;2.90;;;16.10;99.90;;;;;;5021512;28;20206;-59
2022/06/08 05:51:02;;;;;;;11.13;2.67;;;16.10;99.90;;;;;;5009984;28;20199;-59
2022/06/08 05:53:30;;;;;;;4.13;2.60;;;16.20;99.90;;;;;;5009303;28;20203;-58
2022/06/08 05:55:58;;;;;;;9.27;2.53;;;16.20;99.90;;;;;;4995781;28;20220;-59
2022/06/08 05:58:26;;;;;;;7.23;2.77;;;16.10;99.90;;;;;;5011450;28;20274;-59
2022/06/08 06:00:55;;;;;;;8.77;3.20;;;16.20;99.90;;;;;;5003654;28;20222;-59
2022/06/08 06:03:23;;;;;;;6.07;2.70;;;16.20;99.90;;;;;;5001935;28;20200;-59
2022/06/08 06:05:53;;;;;;;8.70;3.03;;;16.20;99.90;;;;;;5009423;28;20206;-60
2022/06/08 06:08:21;;;;;;;10.13;3.70;;;16.20;99.90;;;;;;5009903;28;20277;-59
2022/06/08 06:10:50;;;;;;;8.73;3.30;;;16.10;99.90;;;;;;5025561;28;20184;-59
2022/06/08 06:13:19;;;;;;;7.40;3.47;;;16.00;99.90;;;;;;5009212;28;20273;-59
2022/06/08 06:15:48;;;;;;;5.13;2.70;;;15.90;99.90;;;;;;5003557;28;20201;-59
2022/06/08 06:18:17;;;;;;;6.73;4.10;;;15.90;99.90;;;;;;4991712;28;20284;-60
2022/06/08 06:20:45;;;;;;;4.63;3.33;;;15.90;99.90;;;;;;5004527;28;20306;-59
2022/06/08 06:23:15;;;;;;;8.07;3.40;;;15.90;99.90;;;;;;5011785;28;20300;-59
2022/06/08 06:25:43;;;;;;;11.50;3.20;;;16.00;99.90;;;;;;5054514;28;20200;-59
2022/06/08 06:28:12;;;;;;;6.53;3.20;;;16.00;99.90;;;;;;5114501;28;20209;-59
2022/06/08 06:30:40;;;;;;;12.30;3.60;;;15.90;99.90;;;;;;5028223;28;20257;-59
2022/06/08 06:33:13;;;;;;;12.70;3.20;;;15.90;99.90;;;;;;5025329;28;20816;-59
2022/06/08 06:35:43;;;;;;;5.83;2.87;;;16.00;99.90;;;;;;5011027;28;20226;-59
2022/06/08 06:38:12;;;;;;;11.77;3.60;;;16.00;99.90;;;;;;5011156;28;20278;-59
2022/06/08 06:40:42;;;;;;;7.87;3.30;;;16.10;99.90;;;;;;5004958;28;20231;-59
2022/06/08 06:43:11;;;;;;;5.43;2.63;;;16.10;99.90;;;;;;5011051;28;20736;-59
2022/06/08 06:45:40;;;;;;;13.30;3.30;;;16.00;99.90;;;;;;5001161;28;20203;-60
2022/06/08 06:48:08;;;;;;;7.33;2.97;;;16.10;99.90;;;;;;5007014;28;20187;-60
2022/06/08 06:50:37;;;;;;;8.33;2.67;;;16.00;99.90;;;;;;5010496;28;20654;-58
2022/06/08 06:53:05;;;;;;;5.30;3.00;;;16.00;99.90;;;;;;5009907;28;20383;-60
2022/06/08 06:55:35;;;;;;;13.33;3.30;;;16.10;99.90;;;;;;5011222;28;20180;-58
2022/06/08 06:58:06;;;;;;;7.47;3.17;;;16.00;99.90;;;;;;5010666;28;20208;-59
2022/06/08 07:00:35;;;;;;;7.57;3.20;;;15.90;99.90;;;;;;5009286;28;20756;-60
2022/06/08 07:03:04;;;;;;;6.80;3.43;;;15.90;99.90;;;;;;5009623;28;20209;-59
2022/06/08 07:05:35;;;;;;;7.33;3.80;;;16.00;99.90;;;;;;5088938;28;20227;-59
2022/06/08 07:08:05;;;;;;;10.10;3.13;;;16.10;99.90;;;;;;5010874;28;20266;-59
2022/06/08 07:10:34;;;;;;;12.27;3.47;;;16.10;99.90;;;;;;5009106;28;20345;-58
2022/06/08 07:13:02;;;;;;;10.83;3.33;;;16.10;99.90;;;;;;5008771;28;20203;-59
2022/06/08 07:15:32;;;;;;;5.40;3.87;;;16.10;99.90;;;;;;5010032;28;20195;-59
2022/06/08 07:18:00;;;;;;;6.00;3.30;;;16.10;99.90;;;;;;5010666;28;20195;-59
2022/06/08 07:20:29;;;;;;;16.30;3.83;;;16.10;99.90;;;;;;5011571;28;20717;-59
2022/06/08 07:22:57;;;;;;;10.97;3.60;;;16.10;99.90;;;;;;5010503;28;20273;-59
2022/06/08 07:25:26;;;;;;;12.53;3.30;;;16.10;99.90;;;;;;5017104;28;20230;-58
2022/06/08 07:27:55;;;;;;;9.27;3.30;;;16.00;99.90;;;;;;5010403;28;20196;-59
2022/06/08 07:30:23;;;;;;;14.10;4.10;;;16.00;99.90;;;;;;5003638;28;20200;-59
2022/06/08 07:32:53;;;;;;;7.33;3.23;;;16.00;99.90;;;;;;5000300;28;20231;-60
2022/06/08 07:35:22;;;;;;;13.03;3.80;;;16.00;99.90;;;;;;5006337;28;20204;-60
2022/06/08 07:37:50;;;;;;;8.00;3.60;;;15.90;99.90;;;;;;5002665;28;20194;-60
2022/06/08 07:40:19;;;;;;;13.47;4.10;;;15.90;99.90;;;;;;5010762;28;20194;-59
2022/06/08 07:42:47;;;;;;;14.07;3.90;;;15.80;99.90;;;;;;5032778;28;20310;-59
2022/06/08 07:45:15;;;;;;;10.23;3.97;;;15.80;99.90;;;;;;5041565;28;20289;-59
2022/06/08 07:50:31;;;;;;;10.97;3.40;;;15.70;99.90;;;;;;5006983;28;20230;-59
2022/06/08 07:53:00;;;;;;;8.53;3.20;;;15.70;99.90;;;;;;4999063;28;20206;-59
2022/06/08 07:55:28;;;;;;;8.83;3.20;;;15.60;99.90;;;;;;5006140;28;20198;-60
2022/06/08 07:57:57;;;;;;;7.90;3.23;;;15.50;99.90;;;;;;5010262;28;20635;-59
2022/06/08 08:00:26;;;;;;;4.60;2.80;;;15.50;99.90;;;;;;5011570;28;20201;-58
2022/06/08 08:02:54;;;;;;;8.43;3.33;;;15.50;99.90;;;;;;5008319;28;20301;-60
2022/06/08 08:05:23;;;;;;;4.73;2.73;;;15.40;99.90;;;;;;5006658;28;20203;-59
2022/06/08 08:07:53;;;;;;;11.37;3.60;;;15.30;99.90;;;;;;5013279;28;20198;-59
2022/06/08 08:10:24;;;;;;;7.43;2.90;;;15.20;99.90;;;;;;5012907;28;20677;-58
2022/06/08 08:12:55;;;;;;;9.00;3.60;;;15.20;99.90;;;;;;4993681;28;20197;-59
2022/06/08 08:15:25;;;;;;;11.43;3.80;;;15.20;99.90;;;;;;5010238;28;20285;-60
2022/06/08 08:17:54;;;;;;;11.50;4.00;;;15.10;99.90;;;;;;5013038;28;20186;-59
2022/06/08 08:20:24;;;;;;;7.17;3.70;;;15.10;99.90;;;;;;5012857;28;20234;-59
2022/06/08 08:22:54;;;;;;;9.83;3.57;;;15.10;99.90;;;;;;5026439;28;20244;-60
2022/06/08 08:25:23;;;;;;;13.07;4.00;;;15.00;99.90;;;;;;5007426;28;20234;-59
2022/06/08 08:27:52;;;;;;;10.53;3.83;;;14.90;99.90;;;;;;5012287;28;20200;-59
2022/06/08 08:30:24;;;;;;;12.73;3.70;;;14.90;99.90;;;;;;5012906;28;20198;-60
2022/06/08 08:32:52;;;;;;;8.37;3.20;;;14.90;99.90;;;;;;5012712;28;20229;-60
2022/06/08 08:35:23;;;;;;;5.17;3.10;;;14.80;99.90;;;;;;5013040;28;20195;-59
2022/06/08 08:37:54;;;;;;;8.70;3.40;;;14.80;99.90;;;;;;5001848;28;20209;-59
2022/06/08 08:40:39;;;;;;;8.90;3.93;;;14.70;99.90;;;;;;5039968;28;20201;-60
2022/06/08 08:43:10;;;;;;;13.20;3.90;;;14.70;99.90;;;;;;5001041;28;20220;-59
2022/06/08 08:45:47;;;;;;;13.90;3.63;;;14.60;99.90;;;;;;5038812;28;20191;-59
2022/06/08 08:48:24;;;;;;;12.63;4.13;;;14.60;99.90;;;;;;5008144;28;20201;-60
2022/06/08 08:50:59;;;;;;;9.83;4.03;;;14.60;99.90;;;;;;4993217;28;20191;-60
2022/06/08 08:53:45;;;;;;;5.27;3.90;;;14.70;99.90;;;;;;5011286;28;20650;-59
2022/06/08 08:56:16;;;;;;;9.03;4.03;;;14.60;99.90;;;;;;5006341;28;20194;-59
2022/06/08 08:58:46;;;;;;;7.37;3.67;;;14.70;99.90;;;;;;5012234;28;20208;-60
2022/06/08 09:01:19;;;;;;;11.33;4.03;;;14.70;99.90;;;;;;5008670;28;20195;-60
2022/06/08 09:03:50;;;;;;;11.70;4.50;;;14.60;99.90;;;;;;5007979;28;20638;-60
2022/06/08 09:06:21;;;;;;;10.70;4.90;;;14.60;99.90;;;;;;5012399;28;20191;-60
2022/06/08 09:08:54;;;;;;;8.63;4.33;;;14.60;99.90;;;;;;5009826;28;20194;-60
2022/06/08 09:11:25;;;;;;;11.17;4.57;;;14.70;99.90;;;;;;5006851;28;20201;-60
2022/06/08 09:13:57;;;;;;;13.40;4.50;;;14.70;99.90;;;;;;5004979;28;20691;-60
2022/06/08 09:16:35;;;;;;;7.13;4.47;;;14.70;99.90;;;;;;5010597;28;20233;-60
2022/06/08 09:19:26;;;;;;;10.80;4.67;;;14.80;99.90;;;;;;5010429;28;20677;-60
2022/06/08 09:21:59;;;;;;;11.83;5.03;;;14.80;99.90;;;;;;5011165;28;20677;-60
2022/06/08 09:24:34;;;;;;;10.53;5.00;;;14.80;99.90;;;;;;5009136;28;20631;-60
2022/06/08 09:27:17;;;;;;;11.77;5.00;;;14.80;99.90;;;;;;5023381;28;20580;-60
2022/06/08 09:29:53;;;;;;;11.50;4.60;;;14.80;99.90;;;;;;5008055;28;20215;-60
2022/06/08 09:32:35;;;;;;;9.10;4.50;;;14.80;99.90;;;;;;5001502;28;20198;-59
2022/06/08 09:35:07;;;;;;;13.93;4.77;;;14.80;99.90;;;;;;5005213;28;20190;-61
2022/06/08 09:37:36;;;;;;;7.60;4.20;;;14.80;99.90;;;;;;5011687;28;20662;-60
2022/06/08 09:40:36;;;;;;;10.30;3.97;;;14.80;99.90;;;;;;5007600;28;20642;-60
2022/06/08 09:43:05;;;;;;;8.17;4.23;;;14.80;99.90;;;;;;5107096;28;20219;-61
2022/06/08 09:45:44;;;;;;;7.03;3.63;;;14.80;99.90;;;;;;5021981;28;20827;-60
2022/06/08 09:51:40;;;;;;;7.23;3.53;;;14.80;99.90;;;;;;5006805;28;20682;-59
2022/06/08 09:54:17;;;;;;;5.73;3.50;;;14.80;99.90;;;;;;5003275;28;20225;-61
2022/06/08 09:57:11;;;;;;;3.63;3.30;;;14.80;99.90;;;;;;5011470;28;20661;-60
2022/06/08 09:59:56;;;;;;;7.07;3.47;;;14.80;99.90;;;;;;5010395;28;20212;-60
2022/06/08 10:02:44;;;;;;;7.87;3.30;;;14.80;99.90;;;;;;5010013;28;20725;-60
2022/06/08 10:05:25;;;;;;;6.17;3.30;;;14.80;99.90;;;;;;5013668;28;20658;-60
2022/06/08 10:08:14;;;;;;;4.47;3.47;;;14.80;99.90;;;;;;5006974;28;20657;-60
2022/06/08 10:10:48;;;;;;;9.00;3.70;;;14.80;99.90;;;;;;5009457;28;20294;-61
2022/06/08 10:13:26;;;;;;;5.00;3.27;;;14.80;99.90;;;;;;5006256;28;20261;-60
2022/06/08 10:16:00;;;;;;;4.20;3.27;;;14.90;99.90;;;;;;5006684;28;20197;-60
2022/06/08 10:18:35;;;;;;;6.50;3.90;;;14.90;99.90;;;;;;5008960;28;20680;-60
2022/06/08 10:21:12;;;;;;;3.60;3.30;;;14.90;99.90;;;;;;5011555;28;20194;-60
2022/06/08 10:23:48;;;;;;;5.77;3.60;;;14.90;99.90;;;;;;5002511;28;20217;-62
2022/06/08 10:26:26;;;;;;;3.97;3.17;;;14.90;99.90;;;;;;5010397;28;20225;-60
2022/06/08 10:29:03;;;;;;;5.17;3.07;;;14.90;99.90;;;;;;5006825;28;20298;-61
2022/06/08 10:31:37;;;;;;;3.20;2.90;;;14.90;99.90;;;;;;5008901;28;20206;-60
2022/06/08 10:34:12;;;;;;;3.23;2.77;;;14.90;99.90;;;;;;5009991;28;20558;-61
2022/06/08 10:36:41;;;;;;;4.07;3.07;;;14.80;99.90;;;;;;5007985;28;20196;-61
2022/06/08 10:39:12;;;;;;;5.13;2.60;;;14.80;99.90;;;;;;5000729;28;20222;-60
2022/06/08 10:44:37;;;;;;;4.23;2.50;;;14.90;99.90;;;;;;4999771;28;20259;-61
2022/06/08 10:47:25;;;;;;;3.27;3.07;;;14.90;99.90;;;;;;5008144;28;20775;-60
2022/06/08 10:50:11;;;;;;;7.27;3.17;;;14.90;99.90;;;;;;5010019;28;20227;-61
2022/06/08 10:52:45;;;;;;;3.17;2.80;;;15.00;99.90;;;;;;5011058;28;20195;-60
2022/06/08 10:55:36;;;;;;;4.77;3.23;;;15.00;99.90;;;;;;5010863;28;20241;-61
2022/06/08 10:58:08;;;;;;;4.20;2.67;;;15.10;99.90;;;;;;5009476;28;20273;-61
2022/06/08 11:01:06;;;;;;;3.50;2.93;;;15.10;99.90;;;;;;5009620;28;20279;-60
2022/06/08 11:03:51;;;;;;;3.20;2.87;;;15.10;99.90;;;;;;5008909;28;20215;-61
2022/06/08 11:06:58;;;;;;;4.03;2.70;;;15.10;99.90;;;;;;4991864;28;20195;-61
2022/06/08 11:09:50;;;;;;;2.67;2.43;;;15.10;99.90;;;;;;5010869;28;20210;-61
2022/06/08 11:12:30;;;;;;;2.80;2.53;;;15.10;99.90;;;;;;5005112;28;20255;-61
2022/06/08 11:15:01;;;;;;;6.07;2.60;;;15.20;99.90;;;;;;5010344;28;20198;-61
2022/06/08 11:17:35;;;;;;;2.60;2.40;;;15.20;99.90;;;;;;5009858;28;20273;-61
2022/06/08 11:20:13;;;;;;;2.70;2.50;;;15.30;99.90;;;;;;5049386;28;20622;-60
2022/06/08 11:22:46;;;;;;;2.87;2.27;;;15.30;99.90;;;;;;4998847;28;20306;-60
2022/06/08 11:25:22;;;;;;;2.50;2.30;;;15.30;99.90;;;;;;5007300;28;20234;-60
2022/06/08 11:28:35;;;;;;;2.30;2.20;;;15.40;99.90;;;;;;5010949;28;20204;-61
2022/06/08 11:31:06;;;;;;;2.30;2.20;;;15.40;99.90;;;;;;4963790;28;20202;-61
2022/06/08 11:34:04;;;;;;;2.47;2.27;;;15.50;99.90;;;;;;4997288;28;20218;-61
2022/06/08 11:37:02;;;;;;;2.27;2.10;;;15.50;99.90;;;;;;4992779;28;20198;-61
2022/06/08 11:39:35;;;;;;;3.10;2.30;;;15.50;99.90;;;;;;4994986;28;20293;-61
2022/06/08 11:42:22;;;;;;;3.43;2.37;;;15.50;99.90;;;;;;5017510;28;20198;-61
2022/06/08 11:44:54;;;;;;;3.17;2.60;;;15.60;99.90;;;;;;5051562;28;20206;-61
2022/06/08 11:52:25;;;;;;;9.57;3.00;;;15.60;99.90;;;;;;5017671;28;20306;-60
2022/06/08 12:04:24;;;;;;;6.17;3.17;;;15.70;99.90;;;;;;5013210;28;20221;-61
2022/06/08 12:06:56;;;;;;;6.87;3.40;;;15.80;99.90;;;;;;5013707;28;20278;-61
2022/06/08 12:14:18;;;;;;;8.37;3.53;;;15.70;99.90;;;;;;5007301;28;20186;-61
2022/06/08 12:16:57;;;;;;;13.80;3.87;;;15.80;99.90;;;;;;5011824;28;20198;-61
2022/06/08 12:19:29;;;;;;;11.10;3.77;;;15.80;99.90;;;;;;5012768;28;20229;-62
2022/06/08 12:31:27;;;;;;;13.63;4.87;;;15.90;99.90;;;;;;5003771;28;20542;-61
2022/06/08 12:41:46;;;;;;;14.37;5.03;;;16.10;99.90;;;;;;4999090;28;20195;-61
2022/06/08 12:44:18;;;;;;;13.60;5.17;;;16.10;99.90;;;;;;4993542;28;20244;-60
2022/06/08 12:51:34;;;;;;;14.27;5.30;;;16.20;99.90;;;;;;5011064;28;20171;-60
2022/06/08 12:54:06;;;;;;;13.83;5.37;;;16.20;99.90;;;;;;5012597;28;20595;-61
2022/06/08 12:56:42;;;;;;;14.73;5.23;;;16.20;99.90;;;;;;5012672;28;20203;-61
2022/06/08 13:03:17;;;;;;;14.67;4.93;;;16.20;99.90;;;;;;5011863;28;20182;-61
2022/06/08 13:05:46;;;;;;;17.67;5.20;;;16.20;99.90;;;;;;4995970;28;20198;-61
2022/06/08 13:12:44;;;;;;;15.57;4.80;;;16.40;99.90;;;;;;5012129;28;20620;-60
2022/06/08 13:15:18;;;;;;;18.27;5.10;;;16.30;99.90;;;;;;5027650;28;20192;-60
2022/06/08 13:18:16;;;;;;;19.93;5.27;;;16.40;99.90;;;;;;4992582;28;20205;-60
2022/06/08 13:21:36;;;;;;;11.37;4.20;;;16.30;99.90;;;;;;4997542;28;20642;-60
2022/06/08 13:24:09;;;;;;;18.03;4.60;;;16.30;99.90;;;;;;5005867;28;20219;-60
2022/06/08 13:31:24;;;;;;;20.03;5.17;;;16.60;99.90;;;;;;5011053;28;20217;-60
2022/06/08 13:34:02;;;;;;;17.33;4.70;;;16.50;99.90;;;;;;5011980;28;20186;-60
2022/06/08 13:36:35;;;;;;;12.93;4.60;;;16.50;99.90;;;;;;5010166;28;20600;-61
2022/06/08 13:39:27;;;;;;;15.90;4.97;;;16.50;99.90;;;;;;5002728;28;20212;-60
2022/06/08 13:46:18;;;;;;;12.83;4.67;;;16.50;99.90;;;;;;5002120;28;20184;-60
2022/06/08 14:02:38;;;;;;;16.97;5.17;;;16.80;99.90;;;;;;5004263;28;20224;-60
2022/06/08 14:14:07;;;;;;;17.97;4.00;;;17.30;99.90;;;;;;5003626;28;20198;-60
2022/06/08 14:16:38;;;;;;;11.70;3.70;;;17.30;99.90;;;;;;5009933;28;20285;-60
2022/06/08 14:19:18;;;;;;;19.13;4.03;;;17.20;99.90;;;;;;4994769;28;20258;-60
2022/06/08 14:22:08;;;;;;;14.83;3.83;;;17.30;99.90;;;;;;5033154;28;20197;-60
2022/06/08 14:25:06;;;;;;;11.07;3.40;;;17.30;99.90;;;;;;5008409;28;20562;-60
2022/06/08 14:27:53;;;;;;;11.77;3.27;;;17.40;99.90;;;;;;4993153;28;20207;-59
2022/06/08 14:39:19;;;;;;;12.47;3.47;;;17.60;99.90;;;;;;5001788;28;20706;-59
2022/06/08 14:41:49;;;;;;;9.07;3.47;;;17.80;99.90;;;;;;5003354;28;20255;-60
2022/06/08 14:44:44;;;;;;;12.63;3.80;;;17.90;99.90;;;;;;5010526;28;20301;-60
2022/06/08 14:51:51;;;;;;;15.17;3.47;;;18.20;99.90;;;;;;4995923;28;20240;-59
2022/06/08 14:59:17;;;;;;;8.47;2.80;;;19.70;99.90;;;;;;5010804;28;20220;-59
2022/06/08 15:06:23;;;;;;;5.87;2.20;;;19.80;99.90;;;;;;4999086;28;20189;-59
2022/06/08 15:13:40;;;;;;;8.43;2.60;;;20.20;99.90;;;;;;4994530;28;20177;-57
2022/06/08 15:25:39;;;;;;;6.47;2.00;;;20.60;99.90;;;;;;5111460;28;20604;-59
2022/06/08 15:28:14;;;;;;;8.70;1.90;;;20.40;99.90;;;;;;5012006;28;20202;-59
2022/06/08 15:30:42;;;;;;;11.23;2.10;;;20.30;99.90;;;;;;5009013;28;20197;-59
2022/06/08 15:38:04;;;;;;;5.77;1.80;;;20.10;99.90;;;;;;5004142;28;20247;-60
2022/06/08 15:40:36;;;;;;;5.30;2.20;;;20.10;99.90;;;;;;5000289;28;20289;-60
2022/06/08 15:43:07;;;;;;;2.73;1.80;;;20.30;99.90;;;;;;4999724;28;20556;-59
2022/06/08 15:50:25;;;;;;;6.53;2.23;;;20.40;99.90;;;;;;5037671;28;20535;-59
2022/06/08 16:01:50;;;;;;;9.63;2.33;;;20.90;99.90;;;;;;4999185;28;20557;-59
2022/06/08 16:08:58;;;;;;;4.67;1.70;;;20.90;99.90;;;;;;5002200;28;20288;-58
2022/06/08 16:16:11;;;;;;;8.03;1.97;;;20.60;99.90;;;;;;4994947;28;20190;-58
2022/06/08 16:23:10;;;;;;;7.10;1.73;;;20.70;99.90;;;;;;5021816;28;20208;-58
2022/06/08 16:29:37;;;;;;;7.67;2.17;;;20.10;99.90;;;;;;4960415;28;20274;-59